createdAt,value
2019-01-17T00:01:18.571Z,14.58
2019-01-17T00:03:57.742Z,17.55
2019-01-17T00:06:31.036Z,19.12
2019-01-17T00:09:03.591Z,14.58
2019-01-17T00:11:45.573Z,16.82
2019-01-17T00:14:18.348Z,13.60
2019-01-17T00:16:51.360Z,12.98
2019-01-17T00:19:30.256Z,14.33
2019-01-17T00:22:16.522Z,14.50
2019-01-17T00:24:52.584Z,13.48
2019-01-17T00:27:37.804Z,15.35
2019-01-17T00:30:22.938Z,14.78
2019-01-17T00:32:52.991Z,15.23
2019-01-17T00:35:25.898Z,13.48
2019-01-17T00:37:55.963Z,13.90
2019-01-17T00:40:44.159Z,13.45
2019-01-17T00:43:16.960Z,10.98
2019-01-17T00:45:53.187Z,10.98
2019-01-17T00:48:38.527Z,14.58
2019-01-17T00:51:14.359Z,10.93
2019-01-17T00:53:50.111Z,15.85
2019-01-17T00:56:28.979Z,10.72
2019-01-17T00:59:01.774Z,15.00
2019-01-17T01:01:48.249Z,10.90
2019-01-17T01:04:24.451Z,14.25
2019-01-17T01:07:09.794Z,13.62
2019-01-17T01:09:39.829Z,12.25
2019-01-17T01:12:09.879Z,10.80
2019-01-17T01:14:42.436Z,15.30
2019-01-17T01:17:31.761Z,16.30
2019-01-17T01:20:16.835Z,14.68
2019-01-17T01:22:49.599Z,9.38
2019-01-17T01:25:31.614Z,9.25
2019-01-17T01:28:17.840Z,12.78
2019-01-17T01:30:59.538Z,11.00
2019-01-17T01:33:44.983Z,10.78
2019-01-17T01:36:15.052Z,13.28
2019-01-17T01:38:45.098Z,10.18
2019-01-17T01:41:21.418Z,10.60
2019-01-17T01:43:51.503Z,11.50
2019-01-17T01:46:30.026Z,12.93
2019-01-17T01:49:03.168Z,13.05
2019-01-17T01:51:39.011Z,10.80
2019-01-17T01:54:07.451Z,11.68
2019-01-17T01:56:35.864Z,11.45
2019-01-17T01:59:04.299Z,11.57
2019-01-17T02:01:32.711Z,9.78
2019-01-17T02:04:01.149Z,9.90
2019-01-17T02:06:29.560Z,11.33
2019-01-17T02:08:58.010Z,11.80
2019-01-17T02:11:26.411Z,17.60
2019-01-17T02:13:55.488Z,10.32
2019-01-17T02:16:23.894Z,10.32
2019-01-17T02:18:52.314Z,8.60
2019-01-17T02:21:20.928Z,9.98
2019-01-17T02:23:49.352Z,11.85
2019-01-17T02:26:17.790Z,9.80
2019-01-17T02:28:46.241Z,16.55
2019-01-17T02:31:14.941Z,7.80
2019-01-17T02:33:43.474Z,11.43
2019-01-17T02:36:11.910Z,7.47
2019-01-17T02:38:40.486Z,11.18
2019-01-17T02:41:09.364Z,8.70
2019-01-17T02:43:37.811Z,8.75
2019-01-17T02:46:06.236Z,10.63
2019-01-17T02:48:34.639Z,10.35
2019-01-17T02:51:03.182Z,7.75
2019-01-17T02:53:31.695Z,11.75
2019-01-17T02:56:00.235Z,8.18
2019-01-17T02:58:28.683Z,7.30
2019-01-17T03:00:57.112Z,10.65
2019-01-17T03:03:25.538Z,10.28
2019-01-17T03:05:53.963Z,8.08
2019-01-17T03:08:22.404Z,9.50
2019-01-17T03:10:50.828Z,8.58
2019-01-17T03:13:19.297Z,8.05
2019-01-17T03:15:47.736Z,10.78
2019-01-17T03:18:16.147Z,10.10
2019-01-17T03:20:44.582Z,13.53
2019-01-17T03:23:13.018Z,16.10
2019-01-17T03:25:41.445Z,9.55
2019-01-17T03:28:09.845Z,10.28
2019-01-17T03:30:38.284Z,11.30
2019-01-17T03:33:09.967Z,7.65
2019-01-17T03:35:38.430Z,10.95
2019-01-17T03:38:06.820Z,7.10
2019-01-17T03:40:35.231Z,10.82
2019-01-17T03:43:03.827Z,8.80
2019-01-17T03:45:32.242Z,8.20
2019-01-17T03:48:00.755Z,8.75
2019-01-17T03:50:29.237Z,11.33
2019-01-17T03:52:57.671Z,11.78
2019-01-17T03:55:27.153Z,7.90
2019-01-17T03:57:55.654Z,5.10
2019-01-17T04:00:24.140Z,10.08
2019-01-17T04:02:52.554Z,14.40
2019-01-17T04:05:21.005Z,10.68
2019-01-17T04:07:49.427Z,6.67
2019-01-17T04:10:17.865Z,8.50
2019-01-17T04:12:46.284Z,5.12
2019-01-17T04:15:15.101Z,7.15
2019-01-17T04:17:43.653Z,6.30
2019-01-17T04:20:16.185Z,8.65
2019-01-17T04:22:44.602Z,6.95
2019-01-17T04:25:13.146Z,6.72
2019-01-17T04:27:41.559Z,7.05
2019-01-17T04:30:17.679Z,10.15
2019-01-17T04:32:46.384Z,7.22
2019-01-17T04:35:19.589Z,13.93
2019-01-17T04:37:48.032Z,9.98
2019-01-17T04:40:16.481Z,7.90
2019-01-17T04:42:44.909Z,7.78
2019-01-17T04:45:14.773Z,7.30
2019-01-17T04:47:43.475Z,8.13
2019-01-17T04:50:13.720Z,8.25
2019-01-17T04:52:42.410Z,6.10
2019-01-17T04:55:12.860Z,16.90
2019-01-17T04:57:41.471Z,6.85
2019-01-17T05:00:12.964Z,6.20
2019-01-17T05:02:41.388Z,7.85
2019-01-17T05:05:14.161Z,9.65
2019-01-17T05:07:42.589Z,4.72
2019-01-17T05:10:14.270Z,5.80
2019-01-17T05:12:42.675Z,7.15
2019-01-17T05:15:12.143Z,9.43
2019-01-17T05:17:40.718Z,8.78
2019-01-17T05:20:14.541Z,9.35
2019-01-17T05:22:43.028Z,9.95
2019-01-17T05:25:12.594Z,8.88
2019-01-17T05:27:41.681Z,7.97
2019-01-17T05:30:15.695Z,11.30
2019-01-17T05:32:44.297Z,10.25
2019-01-17T05:35:17.233Z,6.30
2019-01-17T05:37:45.703Z,4.78
2019-01-17T05:40:16.776Z,6.45
2019-01-17T05:42:45.572Z,7.62
2019-01-17T05:45:14.382Z,12.03
2019-01-17T05:47:42.807Z,8.83
2019-01-17T05:50:16.751Z,6.00
2019-01-17T05:52:45.155Z,12.90
2019-01-17T05:55:19.631Z,6.90
2019-01-17T05:57:43.800Z,9.13
2019-01-17T06:00:20.471Z,7.55
2019-01-17T06:02:49.167Z,6.15
2019-01-17T06:05:18.252Z,9.65
2019-01-17T06:07:46.678Z,6.87
2019-01-17T06:10:15.698Z,9.35
2019-01-17T06:12:44.215Z,6.78
2019-01-17T06:15:15.807Z,9.10
2019-01-17T06:17:44.504Z,8.05
2019-01-17T06:20:15.782Z,9.75
2019-01-17T06:22:44.255Z,8.45
2019-01-17T06:25:13.487Z,5.00
2019-01-17T06:27:42.182Z,9.50
2019-01-17T06:30:13.755Z,7.42
2019-01-17T06:32:42.184Z,8.45
2019-01-17T06:35:11.595Z,8.48
2019-01-17T06:37:40.138Z,11.45
2019-01-17T06:40:22.086Z,5.97
2019-01-17T06:42:50.512Z,15.48
2019-01-17T06:45:18.931Z,8.75
2019-01-17T06:47:47.374Z,7.00
2019-01-17T06:50:15.805Z,8.93
2019-01-17T06:52:51.560Z,5.12
2019-01-17T06:55:19.966Z,7.03
2019-01-17T06:57:48.379Z,5.90
2019-01-17T07:00:18.052Z,7.10
2019-01-17T07:02:46.558Z,11.43
2019-01-17T07:05:15.849Z,12.37
2019-01-17T07:07:44.265Z,10.82
2019-01-17T07:10:17.481Z,10.43
2019-01-17T07:12:46.244Z,6.20
2019-01-17T07:15:15.371Z,9.58
2019-01-17T07:17:43.839Z,5.58
2019-01-17T07:20:15.086Z,5.53
2019-01-17T07:22:48.175Z,8.00
2019-01-17T07:25:16.587Z,8.10
2019-01-17T07:27:45.006Z,8.18
2019-01-17T07:30:19.357Z,7.47
2019-01-17T07:32:47.864Z,9.10
2019-01-17T07:35:16.363Z,6.97
2019-01-17T07:37:48.495Z,10.68
2019-01-17T07:40:16.978Z,7.85
2019-01-17T07:42:45.778Z,10.58
2019-01-17T07:45:20.171Z,8.78
2019-01-17T07:47:48.604Z,9.80
2019-01-17T07:50:17.224Z,5.92
2019-01-17T07:52:45.654Z,5.47
2019-01-17T07:55:21.275Z,5.70
2019-01-17T07:57:49.708Z,9.80
2019-01-17T08:00:21.220Z,8.90
2019-01-17T08:02:49.628Z,6.53
2019-01-17T08:05:18.646Z,6.60
2019-01-17T08:07:47.050Z,11.30
2019-01-17T08:10:22.227Z,8.33
2019-01-17T08:12:50.699Z,9.10
2019-01-17T08:15:19.403Z,9.25
2019-01-17T08:17:47.819Z,5.72
2019-01-17T08:20:18.963Z,7.67
2019-01-17T08:22:47.761Z,6.95
2019-01-17T08:25:16.459Z,6.05
2019-01-17T08:27:44.865Z,6.22
2019-01-17T08:30:16.128Z,4.87
2019-01-17T08:32:44.650Z,7.92
2019-01-17T08:35:15.062Z,8.68
2019-01-17T08:37:43.744Z,7.35
2019-01-17T08:40:20.410Z,10.63
2019-01-17T08:42:48.144Z,8.75
2019-01-17T08:45:16.551Z,10.18
2019-01-17T08:47:44.948Z,8.80
2019-01-17T08:50:15.472Z,5.37
2019-01-17T08:52:44.071Z,7.45
2019-01-17T08:55:12.754Z,12.35
2019-01-17T08:57:41.195Z,6.70
2019-01-17T09:00:18.130Z,7.83
2019-01-17T09:02:46.534Z,6.42
2019-01-17T09:05:14.970Z,6.78
2019-01-17T09:07:43.751Z,9.73
2019-01-17T09:10:18.611Z,15.35
2019-01-17T09:12:47.025Z,8.08
2019-01-17T09:15:18.278Z,8.40
2019-01-17T09:17:46.718Z,9.83
2019-01-17T09:20:15.226Z,9.70
2019-01-17T09:22:43.659Z,11.65
2019-01-17T09:25:14.599Z,7.08
2019-01-17T09:27:43.035Z,8.33
2019-01-17T09:30:17.030Z,11.12
2019-01-17T09:32:45.848Z,13.53
2019-01-17T09:35:18.438Z,10.72
2019-01-17T09:37:46.927Z,8.55
2019-01-17T09:40:23.671Z,9.18
2019-01-17T09:42:52.106Z,10.48
2019-01-17T09:45:20.552Z,10.18
2019-01-17T09:47:49.167Z,12.55
2019-01-17T09:50:19.916Z,13.70
2019-01-17T09:52:48.332Z,14.35
2019-01-17T09:55:16.842Z,10.35
2019-01-17T09:57:45.250Z,8.88
2019-01-17T10:00:27.467Z,9.55
2019-01-17T10:02:56.531Z,14.40
2019-01-17T10:05:25.307Z,13.18
2019-01-17T10:07:53.896Z,12.35
2019-01-17T10:10:29.066Z,10.32
2019-01-17T10:12:57.874Z,13.65
2019-01-17T10:15:38.477Z,12.95
2019-01-17T10:18:24.744Z,10.20
2019-01-17T10:21:14.254Z,13.13
2019-01-17T10:23:54.336Z,13.65
2019-01-17T10:26:34.739Z,8.58
2019-01-17T10:29:17.522Z,15.25
2019-01-17T10:32:04.061Z,13.93
2019-01-17T10:34:41.471Z,10.98
2019-01-17T10:37:40.026Z,11.35
2019-01-17T10:40:38.383Z,15.35
2019-01-17T10:43:24.447Z,12.25
2019-01-17T10:46:01.905Z,10.60
2019-01-17T10:49:08.021Z,11.80
2019-01-17T10:51:49.491Z,14.75
2019-01-17T10:54:36.067Z,12.05
2019-01-17T10:57:22.627Z,16.90
2019-01-17T10:59:54.131Z,10.30
2019-01-17T11:02:31.721Z,8.58
2019-01-17T11:05:24.010Z,9.03
2019-01-17T11:08:01.381Z,7.65
2019-01-17T11:10:56.303Z,11.30
2019-01-17T11:13:39.638Z,11.25
2019-01-17T11:16:29.060Z,11.35
2019-01-17T11:19:09.275Z,15.10
2019-01-17T11:21:58.682Z,12.03
2019-01-17T11:24:42.022Z,11.75
2019-01-17T11:27:42.290Z,10.90
2019-01-17T11:30:13.779Z,7.17
2019-01-17T11:33:18.491Z,6.97
2019-01-17T11:36:01.912Z,12.15
2019-01-17T11:38:33.386Z,6.17
2019-01-17T11:41:16.650Z,7.40
2019-01-17T11:44:06.279Z,9.28
2019-01-17T11:46:59.903Z,6.85
2019-01-17T11:49:46.002Z,6.47
2019-01-17T11:52:17.758Z,4.28
2019-01-17T11:54:58.071Z,5.58
2019-01-17T11:57:45.767Z,2.90
2019-01-17T12:00:17.323Z,2.98
2019-01-17T12:02:57.616Z,3.85
2019-01-17T12:05:26.035Z,7.03
2019-01-17T12:07:54.488Z,2.47
2019-01-17T12:10:22.907Z,2.52
2019-01-17T12:12:55.173Z,5.87
2019-01-17T12:15:23.635Z,5.60
2019-01-17T12:17:52.107Z,3.55
2019-01-17T12:20:20.546Z,4.65
2019-01-17T12:22:48.959Z,7.92
2019-01-17T12:25:17.396Z,3.12
2019-01-17T12:27:45.831Z,1.75
2019-01-17T12:30:17.155Z,3.25
2019-01-17T12:32:45.586Z,5.08
2019-01-17T12:35:14.044Z,3.25
2019-01-17T12:37:42.461Z,1.95
2019-01-17T12:40:12.036Z,1.75
2019-01-17T12:42:40.443Z,2.20
2019-01-17T12:45:10.293Z,3.45
2019-01-17T12:47:38.782Z,1.60
2019-01-17T12:50:13.643Z,2.47
2019-01-17T12:52:42.076Z,2.40
2019-01-17T12:55:11.072Z,3.08
2019-01-17T12:57:39.475Z,2.20
2019-01-17T13:00:13.914Z,1.60
2019-01-17T13:02:42.323Z,1.20
2019-01-17T13:05:11.035Z,2.20
2019-01-17T13:07:39.477Z,3.10
2019-01-17T13:10:13.330Z,1.32
2019-01-17T13:12:41.914Z,1.77
2019-01-17T13:15:19.325Z,1.20
2019-01-17T13:17:48.414Z,1.67
2019-01-17T13:20:17.961Z,1.90
2019-01-17T13:22:46.387Z,1.77
2019-01-17T13:25:17.357Z,1.50
2019-01-17T13:27:45.791Z,1.52
2019-01-17T13:30:20.903Z,1.27
2019-01-17T13:32:49.299Z,2.50
2019-01-17T13:35:18.154Z,1.60
2019-01-17T13:37:46.671Z,1.77
2019-01-17T13:40:18.438Z,3.85
2019-01-17T13:42:46.927Z,2.02
2019-01-17T13:45:18.067Z,3.72
2019-01-17T13:47:46.611Z,1.47
2019-01-17T13:50:15.926Z,2.33
2019-01-17T13:52:44.531Z,1.65
2019-01-17T13:55:15.723Z,1.45
2019-01-17T13:57:44.434Z,1.10
2019-01-17T14:00:18.419Z,1.47
2019-01-17T14:02:47.211Z,2.00
2019-01-17T14:05:15.669Z,1.12
2019-01-17T14:07:44.102Z,7.87
2019-01-17T14:10:15.145Z,1.25
2019-01-17T14:12:43.583Z,1.60
2019-01-17T14:15:18.019Z,1.75
2019-01-17T14:17:46.694Z,1.40
2019-01-17T14:20:15.762Z,1.15
2019-01-17T14:22:44.186Z,3.33
2019-01-17T14:25:14.739Z,3.47
2019-01-17T14:27:43.194Z,2.22
2019-01-17T14:30:19.883Z,1.60
2019-01-17T14:32:48.323Z,1.87
2019-01-17T14:35:16.718Z,1.52
2019-01-17T14:37:45.417Z,2.62
2019-01-17T14:40:13.835Z,1.72
2019-01-17T14:42:42.272Z,3.30
2019-01-17T14:45:16.450Z,2.20
2019-01-17T14:47:44.885Z,2.55
2019-01-17T14:50:22.255Z,1.60
2019-01-17T14:52:51.023Z,2.33
2019-01-17T14:55:19.544Z,3.72
2019-01-17T14:57:48.113Z,2.90
2019-01-17T15:00:22.263Z,2.72
2019-01-17T15:02:50.714Z,2.10
2019-01-17T15:05:19.184Z,1.67
2019-01-17T15:07:47.595Z,1.42
2019-01-17T15:10:19.121Z,1.70
2019-01-17T15:12:47.585Z,2.20
2019-01-17T15:15:16.358Z,2.35
2019-01-17T15:17:44.784Z,1.70
2019-01-17T15:20:22.085Z,1.80
2019-01-17T15:22:52.633Z,1.70
2019-01-17T15:25:21.351Z,2.15
2019-01-17T15:27:49.793Z,1.90
2019-01-17T15:30:25.734Z,2.70
2019-01-17T15:32:54.715Z,2.20
2019-01-17T15:35:23.138Z,1.40
2019-01-17T15:37:51.608Z,1.70
2019-01-17T15:40:23.233Z,2.45
2019-01-17T15:42:51.738Z,1.40
2019-01-17T15:45:20.237Z,1.40
2019-01-17T15:47:48.658Z,2.08
2019-01-17T15:50:18.938Z,4.72
2019-01-17T15:52:47.409Z,2.45
2019-01-17T15:55:16.883Z,3.20
2019-01-17T15:57:45.293Z,4.10
2019-01-17T16:00:29.595Z,1.80
2019-01-17T16:02:58.430Z,2.27
2019-01-17T16:05:27.008Z,3.27
2019-01-17T16:07:55.421Z,4.53
2019-01-17T16:10:23.844Z,4.40
2019-01-17T16:12:52.292Z,5.03
2019-01-17T16:15:23.152Z,1.27
2019-01-17T16:17:51.635Z,1.47
2019-01-17T16:20:20.171Z,2.45
2019-01-17T16:22:48.671Z,5.40
2019-01-17T16:25:17.085Z,2.02
2019-01-17T16:27:45.627Z,3.42
2019-01-17T16:30:19.339Z,2.45
2019-01-17T16:32:47.817Z,3.80
2019-01-17T16:35:16.484Z,2.72
2019-01-17T16:37:45.096Z,1.65
2019-01-17T16:40:15.081Z,1.37
2019-01-17T16:42:43.629Z,2.80
2019-01-17T16:45:14.866Z,2.45
2019-01-17T16:47:43.280Z,5.58
2019-01-17T16:50:19.975Z,1.80
2019-01-17T16:52:48.383Z,2.95
2019-01-17T16:55:17.087Z,4.90
2019-01-17T16:57:49.164Z,4.33
2019-01-17T17:00:21.945Z,2.27
2019-01-17T17:02:50.363Z,3.40
2019-01-17T17:05:19.084Z,2.45
2019-01-17T17:07:47.489Z,5.35
2019-01-17T17:10:16.239Z,5.72
2019-01-17T17:12:44.840Z,2.00
2019-01-17T17:15:14.411Z,8.58
2019-01-17T17:17:42.843Z,1.20
2019-01-17T17:20:16.963Z,2.33
2019-01-17T17:22:45.411Z,1.92
2019-01-17T17:25:14.082Z,2.85
2019-01-17T17:27:42.502Z,2.80
2019-01-17T17:30:16.696Z,1.57
2019-01-17T17:32:48.101Z,4.10
2019-01-17T17:35:20.415Z,1.35
2019-01-17T17:37:48.845Z,0.93
2019-01-17T17:40:22.741Z,7.17
2019-01-17T17:42:51.152Z,3.35
2019-01-17T17:45:19.725Z,1.40
2019-01-17T17:47:51.187Z,1.72
2019-01-17T17:50:21.632Z,1.10
2019-01-17T17:52:50.445Z,3.52
2019-01-17T17:55:20.023Z,2.55
2019-01-17T17:57:49.056Z,1.40
2019-01-17T18:00:26.705Z,1.30
2019-01-17T18:02:58.766Z,6.15
2019-01-17T18:05:27.177Z,2.58
2019-01-17T18:07:55.740Z,6.10
2019-01-17T18:10:24.233Z,3.87
2019-01-17T18:12:52.643Z,9.83
2019-01-17T18:15:21.062Z,1.95
2019-01-17T18:17:52.962Z,3.90
2019-01-17T18:20:21.385Z,4.12
2019-01-17T18:22:49.818Z,3.90
2019-01-17T18:25:18.317Z,0.93
2019-01-17T18:27:46.717Z,2.00
2019-01-17T18:30:26.062Z,7.17
2019-01-17T18:32:57.775Z,2.40
2019-01-17T18:35:26.186Z,2.30
2019-01-17T18:37:54.702Z,1.32
2019-01-17T18:40:23.287Z,3.45
2019-01-17T18:42:51.778Z,4.28
2019-01-17T18:45:25.447Z,12.47
2019-01-17T18:47:54.170Z,1.20
2019-01-17T18:50:25.582Z,3.50
2019-01-17T18:52:54.537Z,1.05
2019-01-17T18:55:23.013Z,1.00
2019-01-17T18:57:51.433Z,0.80
2019-01-17T19:00:27.070Z,2.75
2019-01-17T19:02:55.913Z,10.95
2019-01-17T19:05:24.690Z,1.92
2019-01-17T19:07:53.475Z,3.08
2019-01-17T19:10:22.252Z,1.30
2019-01-17T19:12:51.132Z,1.92
2019-01-17T19:15:25.248Z,1.62
2019-01-17T19:17:53.739Z,1.65
2019-01-17T19:20:22.196Z,2.87
2019-01-17T19:22:50.833Z,1.95
2019-01-17T19:25:19.621Z,3.33
2019-01-17T19:27:48.029Z,1.50
2019-01-17T19:30:19.376Z,1.70
2019-01-17T19:32:47.813Z,4.50
2019-01-17T19:35:16.818Z,2.50
2019-01-17T19:37:45.252Z,2.60
2019-01-17T19:40:16.611Z,4.20
2019-01-17T19:42:47.638Z,2.70
2019-01-17T19:45:21.709Z,3.00
2019-01-17T19:47:50.130Z,5.25
2019-01-17T19:50:30.994Z,2.60
2019-01-17T19:52:59.491Z,3.25
2019-01-17T19:55:29.020Z,2.67
2019-01-17T19:57:57.524Z,2.08
2019-01-17T20:00:25.978Z,3.15
2019-01-17T20:02:54.542Z,3.95
2019-01-17T20:05:31.795Z,2.50
2019-01-17T20:08:00.643Z,4.30
2019-01-17T20:10:31.065Z,2.52
2019-01-17T20:12:59.766Z,4.42
2019-01-17T20:15:28.202Z,4.67
2019-01-17T20:17:56.643Z,3.70
2019-01-17T20:20:32.051Z,2.55
2019-01-17T20:22:59.482Z,4.00
2019-01-17T20:25:27.896Z,3.65
2019-01-17T20:27:56.302Z,4.97
2019-01-17T20:30:27.339Z,6.17
2019-01-17T20:32:57.892Z,2.77
2019-01-17T20:35:26.465Z,3.58
2019-01-17T20:37:55.263Z,2.60
2019-01-17T20:40:25.362Z,3.85
2019-01-17T20:42:54.421Z,4.05
2019-01-17T20:45:23.503Z,2.98
2019-01-17T20:47:52.149Z,1.67
2019-01-17T20:50:26.827Z,1.30
2019-01-17T20:52:55.306Z,1.12
2019-01-17T20:55:23.711Z,1.12
2019-01-17T20:57:52.215Z,1.20
2019-01-17T21:00:35.357Z,2.30
2019-01-17T21:03:04.550Z,1.65
2019-01-17T21:05:32.962Z,2.45
2019-01-17T21:08:01.372Z,2.27
2019-01-17T21:10:29.768Z,1.40
2019-01-17T21:12:58.246Z,2.15
2019-01-17T21:15:26.678Z,1.90
2019-01-17T21:17:55.380Z,2.25
2019-01-17T21:20:23.803Z,1.60
2019-01-17T21:22:52.236Z,2.30
2019-01-17T21:25:21.433Z,1.70
2019-01-17T21:27:49.962Z,2.22
2019-01-17T21:30:23.975Z,2.60
2019-01-17T21:32:52.437Z,3.05
2019-01-17T21:35:20.947Z,3.92
2019-01-17T21:37:49.421Z,5.60
2019-01-17T21:40:22.822Z,3.35
2019-01-17T21:42:51.338Z,2.30
2019-01-17T21:45:20.263Z,3.05
2019-01-17T21:47:48.680Z,7.87
2019-01-17T21:50:28.318Z,3.87
2019-01-17T21:52:56.751Z,2.62
2019-01-17T21:55:25.427Z,7.05
2019-01-17T21:57:53.988Z,4.97
2019-01-17T22:00:25.256Z,4.90
2019-01-17T22:02:53.765Z,2.58
2019-01-17T22:05:22.254Z,5.17
2019-01-17T22:07:50.780Z,2.70
2019-01-17T22:10:20.537Z,2.92
2019-01-17T22:12:49.235Z,3.75
2019-01-17T22:15:20.164Z,2.85
2019-01-17T22:17:48.934Z,1.92
2019-01-17T22:20:17.570Z,3.10
2019-01-17T22:22:46.534Z,3.83
2019-01-17T22:25:17.755Z,3.47
2019-01-17T22:27:47.626Z,2.42
2019-01-17T22:30:21.718Z,3.70
2019-01-17T22:32:50.274Z,3.25
2019-01-17T22:35:18.677Z,2.17
2019-01-17T22:37:47.118Z,2.15
2019-01-17T22:40:17.087Z,3.52
2019-01-17T22:42:45.526Z,5.37
2019-01-17T22:45:22.945Z,5.10
2019-01-17T22:47:51.391Z,2.20
2019-01-17T22:50:20.367Z,2.17
2019-01-17T22:52:50.444Z,2.83
2019-01-17T22:55:18.883Z,2.47
2019-01-17T22:57:47.291Z,2.60
2019-01-17T23:00:32.371Z,2.98
2019-01-17T23:03:00.838Z,2.60
2019-01-17T23:05:29.238Z,2.52
2019-01-17T23:08:02.352Z,2.87
2019-01-17T23:10:30.817Z,8.40
2019-01-17T23:12:59.249Z,5.35
2019-01-17T23:15:27.779Z,3.50
2019-01-17T23:17:56.187Z,2.60
2019-01-17T23:20:24.607Z,2.90
2019-01-17T23:22:53.009Z,4.10
2019-01-17T23:25:21.432Z,3.25
2019-01-17T23:27:49.962Z,3.08
2019-01-17T23:30:18.743Z,2.05
2019-01-17T23:32:47.297Z,3.08
2019-01-17T23:35:15.748Z,2.17
2019-01-17T23:37:44.178Z,3.62
2019-01-17T23:40:12.987Z,2.87
2019-01-17T23:42:41.444Z,3.60
2019-01-17T23:45:10.409Z,5.95
2019-01-17T23:47:38.837Z,6.55
2019-01-17T23:50:09.993Z,6.22
2019-01-17T23:52:38.533Z,3.67
2019-01-17T23:55:08.312Z,6.00
2019-01-17T23:57:36.814Z,3.72
